Aérodrome :
LOGIN :

S'inscrire | Disclaimer

   EN    FR    IT 

 










Légende :    VFR   VFR Marginal   IFR   IFR Intensif   IFR Très Intensif
Visi : 
Plafond : 
>= 8 km
>= 3000ft
5 à 8 km
1000 à 3000 ft
1500m à 5 km
500 à 1000 ft
800 à 1500m
200 à 500 ft
< 800m
< 200 ft
Symboles :   Orages  Brouillard  Fortes neiges  Fortes précipitations  Vent > 20 kt
SIGMETs :   Divers  Orages  Givrage  Turbulence  Onde Orograph.  Cendres Volcan.






- Altitude de l'aérodrome : 87 ft
- Code IATA : BEY


OLBA - Rafic Hariri Int.

DERNIER METAR :
  • 310100Z 09006KT 8000 BKN030 21/14 Q1018 NOSIG

METARs EXPIRÉS :
  • 310000Z 03005KT 360V070 8000 BKN030 21/14 Q1018 NOSIG
  • 302300Z 01006KT 8000 BKN031 21/14 Q1018 NOSIG

TAF TAF OLBA
Valide du 31 à 00h jusqu'au 01 à 06h UTC


302200Z 3100/0106 36008KT 9999 FEW030
BECMG 3106/3109 36008KT
BECMG 3112/3115 02010KT
BECMG 3118/3121 04010KT
FIR OLBB / Asie



MET'MAP, la Météo Aéronautique d'un coup d'oeil ! - Copyright ORBIFLY Décembre 2007 - Disclaimer

ORBIFLY MET'MAP TEAM :

Programmation & Développement : Alexandra Zaïnal
Sur une idée originale de : Baudouin d'Aumeries
Assistance à la programmation : Marc-Olivier Méhu
Soutien technique & logistique : Manuel Goepfert

Contact : metmap@orbifly.com




SOURCES & CREDITS :

   NOAA